Framingham, MA (01701)

4:22 AM EST on February 01, 2015 (GMT -0500)
Framingham near Rt30/126 | Change Station
CLOSE
Current Station
Personal Weather Station
Location: Framingham, MA
Elevation: 265 ft
Nearby Weather Stations
Active Advisory: Winter Storm Warning

Elev 265 ft 42.31 °N, 71.41 °W | Updated 2 minutes ago

Clear
Clear
9.7 °F
Feels Like 10 °F
N
3.0
Wind Variable Wind from West
Gusts 3.0 mph

Today
High -- | Low -- °F
--% Chance of Precip.
Yesterday
High -- | Low -- °F
Precip. -- in
6:59 AM 4:59 PM
Waxing Gibbous, 94% visible
Pressure 30.14 in
Visibility 10.0 miles
Clouds Clear
Windchill 10 °F
Dew Point °F
Humidity 63%
Rainfall 0.00 in
Snow Depth Not available.
UV 0 out of 12
Pollen .10 out of 12
Air Quality Not available.
Flu Activity Not available.
METAR KBED 010856Z 22005KT 10SM CLR M14/M21 A3009 RMK AO2 SLP207 T11391206 53015

More Conditions Fewer Conditions

Pressure 30.14 in
Visibility 10.0 miles
Clouds Clear
Windchill 10 °F
Dew Point °F
Humidity 63%
Rainfall 0.00 in
Snow Depth Not available.
UV 0 out of 12
Pollen .10 out of 12
Air Quality Not available.
Flu Activity Not available.
METAR KBED 010856Z 22005KT 10SM CLR M14/M21 A3009 RMK AO2 SLP207 T11391206 53015

More Conditions Fewer Conditions

10-Day Weather Forecast

Almanac

Astronomy

Feb. 01, 2015 Rise Set
Actual Time
Civil Twilight
Nautical Twilight
Astronomical Twilight
Moon
Length of Visible Light
Length of Day
Tomorrow will be .
, % of the Moon is Illuminated

Today's Extremes

State Highs State Lows

Community

WunderPhotos

Upload Photos

1,792,338 photos uploaded!

WunderBlogs® & News

Nearby

Air Quality

  Air Quality AQ Index Pollutant
Not available.

Snow Depth

Station Depth Elevation

Earthquake Activity

City Distance Mag. Time & Date
Minimum magnitude displayed is 2.5.

Coastal Water Temperatures

Place Temperature

Nearby Weather Stations